createdAt,value
2023-02-06T00:02:47.899Z,90.47
2023-02-06T00:07:50.650Z,90.46
2023-02-06T00:12:53.218Z,90.46
2023-02-06T00:17:55.758Z,90.70
2023-02-06T00:22:58.752Z,90.81
2023-02-06T00:28:01.431Z,90.58
2023-02-06T00:33:04.168Z,90.58
2023-02-06T00:38:08.141Z,90.60
2023-02-06T00:43:11.106Z,90.69
2023-02-06T00:48:16.612Z,90.68
2023-02-06T00:53:19.607Z,90.55
2023-02-06T00:58:22.397Z,90.45
2023-02-06T01:03:28.881Z,90.60
2023-02-06T01:08:31.490Z,90.60
2023-02-06T01:13:34.053Z,90.72
2023-02-06T01:18:37.601Z,90.91
2023-02-06T01:23:41.264Z,90.78
2023-02-06T01:28:46.421Z,90.72
2023-02-06T01:33:51.378Z,91.01
2023-02-06T01:38:53.991Z,91.03
2023-02-06T01:44:18.366Z,90.75
2023-02-06T01:49:43.576Z,90.70
2023-02-06T01:54:50.198Z,90.65
2023-02-06T01:59:58.775Z,90.51
2023-02-06T02:05:03.563Z,90.67
2023-02-06T02:10:06.368Z,90.45
2023-02-06T02:15:09.270Z,90.27
2023-02-06T02:20:30.626Z,90.51
2023-02-06T02:25:56.976Z,90.47
2023-02-06T02:31:30.944Z,90.48
2023-02-06T02:37:00.738Z,90.41
2023-02-06T02:42:38.434Z,90.37
2023-02-06T02:48:13.925Z,90.27
2023-02-06T02:53:16.955Z,90.26
2023-02-06T02:58:28.024Z,90.43
2023-02-06T03:03:53.007Z,90.15
2023-02-06T03:09:19.060Z,90.13
2023-02-06T03:14:30.398Z,90.27
2023-02-06T03:19:37.767Z,90.33
2023-02-06T03:24:40.355Z,90.36
2023-02-06T03:29:44.894Z,90.59
2023-02-06T03:35:13.969Z,90.53
2023-02-06T03:40:17.945Z,90.45
2023-02-06T03:45:42.493Z,90.45
2023-02-06T03:50:47.986Z,90.49
2023-02-06T03:55:54.232Z,90.58
2023-02-06T04:00:57.292Z,90.81
2023-02-06T04:06:00.604Z,90.74
2023-02-06T04:11:03.310Z,90.76
2023-02-06T04:16:05.946Z,90.60
2023-02-06T04:21:08.788Z,90.53
2023-02-06T04:26:11.479Z,90.56
2023-02-06T04:31:14.667Z,90.59
2023-02-06T04:36:17.376Z,90.64
2023-02-06T04:41:19.930Z,90.65
2023-02-06T04:46:22.533Z,90.82
2023-02-06T04:51:25.273Z,90.99
2023-02-06T04:56:27.874Z,90.89
2023-02-06T05:01:30.962Z,91.05
2023-02-06T05:06:33.674Z,90.91
2023-02-06T05:11:36.234Z,90.95
2023-02-06T05:16:39.108Z,91.01
2023-02-06T05:21:41.849Z,91.09
2023-02-06T05:26:46.366Z,91.25
2023-02-06T05:31:49.062Z,91.40
2023-02-06T05:36:51.645Z,91.21
2023-02-06T05:41:54.199Z,91.08
2023-02-06T05:46:56.828Z,90.85
2023-02-06T05:51:59.518Z,90.70
2023-02-06T05:57:02.380Z,90.37
2023-02-06T06:02:04.944Z,90.52
2023-02-06T06:07:08.447Z,90.69
2023-02-06T06:12:11.123Z,90.58
2023-02-06T06:17:14.248Z,90.48
2023-02-06T06:22:17.034Z,90.61
2023-02-06T06:27:19.588Z,90.48
2023-02-06T06:32:22.150Z,90.24
2023-02-06T06:37:24.704Z,90.40
2023-02-06T06:42:27.269Z,90.36
2023-02-06T06:47:29.837Z,90.28
2023-02-06T06:52:32.904Z,90.23
2023-02-06T06:57:35.680Z,89.76
2023-02-06T07:02:38.415Z,89.84
2023-02-06T07:07:41.144Z,89.43
2023-02-06T07:12:43.921Z,88.88
2023-02-06T07:17:46.778Z,88.59
2023-02-06T07:22:50.265Z,87.50
2023-02-06T07:27:53.025Z,86.68
2023-02-06T07:32:55.604Z,86.24
2023-02-06T07:37:58.137Z,86.08
2023-02-06T07:43:00.981Z,85.67
2023-02-06T07:48:05.245Z,85.36
2023-02-06T07:53:08.005Z,83.44
2023-02-06T07:58:13.647Z,82.41
2023-02-06T08:03:16.300Z,82.00
2023-02-06T08:08:18.999Z,81.98
2023-02-06T08:13:21.609Z,82.58
2023-02-06T08:18:27.294Z,82.72
2023-02-06T08:23:29.952Z,82.28
2023-02-06T08:28:32.601Z,82.15
2023-02-06T08:33:35.333Z,81.43
2023-02-06T08:38:38.449Z,81.48
2023-02-06T08:43:41.014Z,80.89
2023-02-06T08:48:43.968Z,81.08
2023-02-06T08:53:46.609Z,81.06
2023-02-06T08:58:49.159Z,80.74
2023-02-06T09:03:56.722Z,80.73
2023-02-06T09:08:59.556Z,80.23
2023-02-06T09:14:06.187Z,79.92
2023-02-06T09:19:10.620Z,79.57
2023-02-06T09:24:13.216Z,79.41
2023-02-06T09:29:15.786Z,78.92
2023-02-06T09:34:18.409Z,78.90
2023-02-06T09:39:20.982Z,78.49
2023-02-06T09:44:45.471Z,77.78
2023-02-06T09:49:51.804Z,77.15
2023-02-06T09:55:12.753Z,75.13
2023-02-06T10:00:34.078Z,74.92
2023-02-06T10:05:42.829Z,75.27
2023-02-06T10:10:53.065Z,74.67
2023-02-06T10:16:11.834Z,73.94
2023-02-06T10:21:45.198Z,73.15
2023-02-06T10:26:52.204Z,73.22
2023-02-06T10:31:59.606Z,73.63
2023-02-06T10:37:14.782Z,73.25
2023-02-06T10:42:24.547Z,73.20
2023-02-06T10:47:39.679Z,73.30
2023-02-06T10:52:44.029Z,73.75
2023-02-06T10:57:50.715Z,73.49
2023-02-06T11:03:08.156Z,72.84
2023-02-06T11:08:20.812Z,72.53
2023-02-06T11:13:28.104Z,72.56
2023-02-06T11:18:43.262Z,72.01
2023-02-06T11:23:47.364Z,71.63
2023-02-06T11:29:07.866Z,69.83
2023-02-06T11:34:25.116Z,69.86
2023-02-06T11:39:32.065Z,70.74
2023-02-06T11:44:40.550Z,70.13
2023-02-06T11:49:43.116Z,69.98
2023-02-06T11:54:54.372Z,70.87
2023-02-06T12:00:18.593Z,70.76
2023-02-06T12:05:26.543Z,70.85
2023-02-06T12:10:35.672Z,70.19
2023-02-06T12:15:47.861Z,68.87
2023-02-06T12:21:03.789Z,69.64
2023-02-06T12:26:14.680Z,70.35
2023-02-06T12:31:27.452Z,70.55
2023-02-06T12:36:51.049Z,70.10
2023-02-06T12:42:13.356Z,69.89
2023-02-06T12:47:34.436Z,69.81
2023-02-06T12:53:02.646Z,69.05
2023-02-06T12:58:20.736Z,68.31
2023-02-06T13:03:44.016Z,68.40
2023-02-06T13:09:07.130Z,68.71
2023-02-06T13:14:28.442Z,68.68
2023-02-06T13:19:52.830Z,68.75
2023-02-06T13:24:57.355Z,68.62
2023-02-06T13:30:34.675Z,67.36
2023-02-06T13:36:00.732Z,66.41
2023-02-06T13:41:28.002Z,67.09
2023-02-06T13:46:50.697Z,67.37
2023-02-06T13:52:03.857Z,67.15
2023-02-06T13:57:29.199Z,67.82
2023-02-06T14:02:39.526Z,68.22
2023-02-06T14:08:06.932Z,68.72
2023-02-06T14:13:38.900Z,68.81
2023-02-06T14:18:44.431Z,68.45
2023-02-06T14:24:08.718Z,68.28
2023-02-06T14:29:33.925Z,68.41
2023-02-06T14:34:44.872Z,69.21
2023-02-06T14:40:04.404Z,70.11
2023-02-06T14:46:07.927Z,70.75
2023-02-06T14:51:25.316Z,69.35
2023-02-06T14:56:36.326Z,69.74
2023-02-06T15:01:40.453Z,70.51
2023-02-06T15:06:53.905Z,71.62
2023-02-06T15:12:03.367Z,72.56
2023-02-06T15:17:05.896Z,73.55
2023-02-06T15:22:15.740Z,74.24
2023-02-06T15:27:37.754Z,74.73
2023-02-06T15:32:40.470Z,75.09
2023-02-06T15:37:43.180Z,75.70
2023-02-06T15:42:48.882Z,76.36
2023-02-06T15:47:53.509Z,77.03
2023-02-06T15:52:56.399Z,77.57
2023-02-06T15:58:02.073Z,77.80
2023-02-06T16:03:19.803Z,77.95
2023-02-06T16:08:28.867Z,78.35
2023-02-06T16:13:33.272Z,78.82
2023-02-06T16:18:42.947Z,78.95
2023-02-06T16:24:07.269Z,79.14
2023-02-06T16:29:10.085Z,79.26
2023-02-06T16:34:32.231Z,79.38
2023-02-06T16:39:34.864Z,79.55
2023-02-06T16:44:44.571Z,79.72
2023-02-06T16:49:48.434Z,79.67
2023-02-06T16:54:52.183Z,79.85
2023-02-06T16:59:55.118Z,80.20
2023-02-06T17:04:57.816Z,80.47
2023-02-06T17:10:03.887Z,80.96
2023-02-06T17:15:07.209Z,81.62
2023-02-06T17:20:36.340Z,82.16
2023-02-06T17:25:40.236Z,82.12
2023-02-06T17:30:43.659Z,82.09
2023-02-06T17:35:50.640Z,81.89
2023-02-06T17:40:53.558Z,82.12
2023-02-06T17:45:56.223Z,82.18
2023-02-06T17:50:58.907Z,82.28
2023-02-06T17:56:14.262Z,82.50
2023-02-06T18:01:19.834Z,82.41
2023-02-06T18:06:25.636Z,82.62
2023-02-06T18:11:29.398Z,82.75
2023-02-06T18:16:32.238Z,83.08
2023-02-06T18:21:37.192Z,83.42
2023-02-06T18:26:39.736Z,83.63
2023-02-06T18:31:42.421Z,83.83
2023-02-06T18:36:46.457Z,83.91
2023-02-06T18:42:07.451Z,83.93
2023-02-06T18:47:12.037Z,83.78
2023-02-06T18:52:15.083Z,83.87
2023-02-06T18:57:17.619Z,84.40
2023-02-06T19:02:20.188Z,84.45
2023-02-06T19:07:22.728Z,84.77
2023-02-06T19:12:28.399Z,85.12
2023-02-06T19:17:32.124Z,85.27
2023-02-06T19:22:38.406Z,85.46
2023-02-06T19:27:41.043Z,85.67
2023-02-06T19:32:43.739Z,85.94
2023-02-06T19:37:46.288Z,85.75
2023-02-06T19:42:49.024Z,85.80
2023-02-06T19:47:51.524Z,85.83
2023-02-06T19:52:54.004Z,85.82
2023-02-06T19:57:56.726Z,86.05
2023-02-06T20:03:00.872Z,86.36
2023-02-06T20:08:05.352Z,86.83
2023-02-06T20:13:08.266Z,87.18
2023-02-06T20:18:10.913Z,87.09
2023-02-06T20:23:15.565Z,87.02
2023-02-06T20:28:18.772Z,87.26
2023-02-06T20:33:21.285Z,87.48
2023-02-06T20:38:23.831Z,87.77
2023-02-06T20:43:26.519Z,88.01
2023-02-06T20:48:29.374Z,88.32
2023-02-06T20:53:32.493Z,88.50
2023-02-06T20:58:35.015Z,88.40
2023-02-06T21:03:46.274Z,88.62
2023-02-06T21:08:51.461Z,88.59
2023-02-06T21:13:54.406Z,88.55
2023-02-06T21:18:58.480Z,88.25
2023-02-06T21:24:03.087Z,88.29
2023-02-06T21:29:08.185Z,88.52
2023-02-06T21:34:17.143Z,88.83
2023-02-06T21:39:22.580Z,88.79
2023-02-06T21:44:26.690Z,89.28
2023-02-06T21:49:30.086Z,89.41
2023-02-06T21:54:32.575Z,89.19
2023-02-06T21:59:36.385Z,89.30
2023-02-06T22:04:39.135Z,89.53
2023-02-06T22:09:41.821Z,89.61
2023-02-06T22:14:44.709Z,89.70
2023-02-06T22:19:48.829Z,90.00
2023-02-06T22:24:51.632Z,89.95
2023-02-06T22:29:54.698Z,89.95
2023-02-06T22:35:00.384Z,89.78
2023-02-06T22:40:03.126Z,89.99
2023-02-06T22:45:06.454Z,90.12
2023-02-06T22:50:09.124Z,90.18
2023-02-06T22:55:12.099Z,90.11
2023-02-06T23:00:16.823Z,89.84
2023-02-06T23:05:19.870Z,89.97
2023-02-06T23:10:22.387Z,89.58
2023-02-06T23:15:24.921Z,89.55
2023-02-06T23:20:27.496Z,89.78
2023-02-06T23:25:30.552Z,90.07
2023-02-06T23:30:33.288Z,90.18
2023-02-06T23:35:38.044Z,90.34
2023-02-06T23:40:40.754Z,90.39
2023-02-06T23:45:46.017Z,90.03
2023-02-06T23:50:48.511Z,89.89
2023-02-06T23:55:51.265Z,89.95
